Terminal Aerodrome Forecast
Issued by NWS

Home | Current Version | Previous Version | Text Only | Print | Product List | Glossary On
Versions: 1 2 3 4 5 6 7 8 9 10 11 12 13
000
FTUS46 KSTO 230538
TAFRDD
TAF
KRDD 230538Z 2306/2406 16007KT P6SM SCT015 OVC035
      TEMPO 2306/2310 5SM -SHRA BR OVC015
     FM231500 15008KT P6SM -SHRA OVC020=

USA.gov is the U.S. government's official web portal to all federal, state and local government web resources and services.